createdAt,value
2017-12-16T01:38:32.842Z,4.04
2017-12-16T01:38:33.412Z,4.04
2017-12-16T01:38:34.011Z,4.04
2017-12-16T01:38:34.609Z,4.08
2017-12-16T01:38:35.211Z,4.03
2017-12-16T01:38:35.811Z,3.98
2017-12-16T01:38:36.411Z,3.96
2017-12-16T01:38:37.012Z,4.06
2017-12-16T01:39:30.470Z,4.06
2017-12-16T01:39:31.065Z,4.01
2017-12-16T01:39:31.712Z,4.03
2017-12-16T01:39:32.268Z,4.08
2017-12-16T01:39:32.864Z,4.07
2017-12-16T01:39:33.464Z,4.07
2017-12-16T01:39:34.066Z,4.14
2017-12-16T01:39:34.663Z,4.07
2017-12-16T01:40:29.145Z,4.07
2017-12-16T01:40:29.740Z,4.06
2017-12-16T01:40:30.341Z,4.10
2017-12-16T01:40:30.942Z,4.10
2017-12-16T01:40:31.562Z,4.06
2017-12-16T01:40:32.165Z,4.07
2017-12-16T01:40:32.743Z,4.08
2017-12-16T01:40:33.360Z,4.04
2017-12-16T01:41:27.824Z,4.12
2017-12-16T01:41:28.422Z,4.08
2017-12-16T01:41:29.016Z,3.97
2017-12-16T01:41:29.618Z,4.08
2017-12-16T01:41:30.217Z,3.97
2017-12-16T01:41:30.816Z,4.00
2017-12-16T01:41:31.478Z,4.08
2017-12-16T01:41:32.016Z,3.94
2017-12-16T01:42:25.474Z,4.04
2017-12-16T01:42:26.070Z,4.16
2017-12-16T01:42:26.670Z,4.06
2017-12-16T01:42:27.270Z,4.06
2017-12-16T01:42:27.868Z,4.06
2017-12-16T01:42:28.488Z,4.12
2017-12-16T01:42:29.080Z,4.01
2017-12-16T01:42:29.668Z,4.07
2017-12-16T01:43:23.161Z,4.07
2017-12-16T01:43:23.722Z,4.16
2017-12-16T01:43:24.322Z,4.12
2017-12-16T01:43:24.921Z,3.96
2017-12-16T01:43:25.523Z,4.00
2017-12-16T01:43:26.119Z,4.06
2017-12-16T01:43:26.719Z,4.18
2017-12-16T01:43:27.318Z,4.04
2017-12-16T01:44:20.801Z,4.12
2017-12-16T01:44:21.386Z,4.15
2017-12-16T01:44:21.986Z,4.10
2017-12-16T01:44:22.577Z,4.04
2017-12-16T01:44:23.178Z,4.04
2017-12-16T01:44:23.818Z,4.16
2017-12-16T01:44:24.373Z,4.08
2017-12-16T01:44:24.979Z,4.12
2017-12-16T01:45:18.430Z,4.16
2017-12-16T01:45:19.025Z,4.01
2017-12-16T01:45:19.626Z,4.08
2017-12-16T01:45:20.227Z,4.08
2017-12-16T01:45:20.825Z,4.04
2017-12-16T01:45:21.425Z,4.10
2017-12-16T01:45:22.024Z,4.04
2017-12-16T01:45:22.626Z,4.10
2017-12-16T01:46:16.080Z,4.12
2017-12-16T01:46:16.678Z,4.06
2017-12-16T01:46:17.279Z,4.06
2017-12-16T01:46:17.877Z,4.07
2017-12-16T01:46:18.476Z,4.08
2017-12-16T01:46:19.076Z,4.07
2017-12-16T01:46:19.677Z,4.04
2017-12-16T01:46:20.277Z,4.06
2017-12-16T01:47:14.757Z,4.12
2017-12-16T01:47:15.352Z,4.08
2017-12-16T01:47:15.956Z,4.06
2017-12-16T01:47:16.553Z,4.04
2017-12-16T01:47:17.152Z,4.04
2017-12-16T01:47:17.754Z,4.06
2017-12-16T01:47:18.351Z,4.08
2017-12-16T01:47:18.969Z,4.12
2017-12-16T01:48:13.445Z,4.07
2017-12-16T01:48:14.030Z,4.07
2017-12-16T01:48:14.631Z,4.10
2017-12-16T01:48:15.228Z,4.14
2017-12-16T01:48:15.827Z,4.08
2017-12-16T01:48:16.429Z,4.08
2017-12-16T01:48:17.028Z,4.06
2017-12-16T01:48:17.627Z,4.08
2017-12-16T01:49:12.422Z,4.07
2017-12-16T01:49:12.924Z,4.06
2017-12-16T01:49:13.522Z,4.10
2017-12-16T01:49:14.133Z,4.06
2017-12-16T01:49:14.796Z,4.08
2017-12-16T01:49:15.320Z,4.07
2017-12-16T01:49:15.920Z,4.04
2017-12-16T01:49:16.520Z,4.06
2017-12-16T01:50:10.069Z,4.00
2017-12-16T01:50:10.666Z,4.07
2017-12-16T01:50:11.271Z,4.04
2017-12-16T01:50:11.867Z,4.08
2017-12-16T01:50:12.508Z,4.07
2017-12-16T01:50:13.064Z,4.06
2017-12-16T01:50:13.665Z,4.06
2017-12-16T01:50:14.264Z,4.08
2017-12-16T01:51:07.719Z,4.06
2017-12-16T01:51:08.316Z,4.04
2017-12-16T01:51:08.917Z,4.08
2017-12-16T01:51:09.522Z,4.08
2017-12-16T01:51:10.117Z,4.10
2017-12-16T01:51:10.715Z,4.04
2017-12-16T01:51:11.315Z,4.04
2017-12-16T01:51:11.914Z,4.08
2017-12-16T01:52:06.396Z,4.04
2017-12-16T01:52:06.992Z,4.06
2017-12-16T01:52:07.592Z,4.08
2017-12-16T01:52:08.190Z,4.08
2017-12-16T01:52:08.791Z,4.10
2017-12-16T01:52:09.391Z,4.06
2017-12-16T01:52:10.034Z,4.12
2017-12-16T01:52:10.589Z,4.08
2017-12-16T01:53:05.174Z,4.08
2017-12-16T01:53:05.769Z,4.12
2017-12-16T01:53:06.371Z,4.06
2017-12-16T01:53:06.969Z,4.15
2017-12-16T01:53:07.567Z,4.12
2017-12-16T01:53:08.167Z,4.14
2017-12-16T01:53:08.770Z,4.10
2017-12-16T01:53:09.367Z,4.12
2017-12-16T01:54:02.838Z,4.12
2017-12-16T01:54:03.424Z,4.14
2017-12-16T01:54:04.021Z,4.15
2017-12-16T01:54:04.623Z,4.16
2017-12-16T01:54:05.221Z,4.15
2017-12-16T01:54:05.822Z,4.16
2017-12-16T01:54:06.421Z,4.10
2017-12-16T01:54:07.028Z,4.18
2017-12-16T01:55:01.534Z,4.12
2017-12-16T01:55:02.097Z,4.18
2017-12-16T01:55:02.699Z,4.16
2017-12-16T01:55:03.297Z,4.19
2017-12-16T01:55:03.896Z,4.19
2017-12-16T01:55:04.500Z,4.18
2017-12-16T01:55:05.094Z,4.16
2017-12-16T01:55:05.695Z,4.22
2017-12-16T01:56:00.176Z,4.18
2017-12-16T01:56:00.773Z,4.25
2017-12-16T01:56:01.374Z,4.18
2017-12-16T01:56:01.979Z,4.21
2017-12-16T01:56:02.571Z,4.12
2017-12-16T01:56:03.172Z,4.18
2017-12-16T01:56:03.772Z,4.25
2017-12-16T01:56:04.370Z,4.21
2017-12-16T01:56:57.830Z,4.16
2017-12-16T01:56:58.425Z,4.15
2017-12-16T01:56:59.025Z,4.19
2017-12-16T01:56:59.624Z,4.21
2017-12-16T01:57:00.224Z,4.24
2017-12-16T01:57:00.824Z,4.21
2017-12-16T01:57:01.425Z,4.21
2017-12-16T01:57:02.031Z,4.15
2017-12-16T01:57:55.481Z,4.21
2017-12-16T01:57:56.077Z,4.22
2017-12-16T01:57:56.676Z,4.24
2017-12-16T01:57:57.275Z,4.15
2017-12-16T01:57:57.879Z,4.25
2017-12-16T01:57:58.482Z,4.21
2017-12-16T01:57:59.076Z,4.22
2017-12-16T01:57:59.678Z,4.24
2017-12-16T01:58:53.131Z,4.16
2017-12-16T01:58:53.729Z,4.22
2017-12-16T01:58:54.329Z,4.26
2017-12-16T01:58:54.927Z,4.22
2017-12-16T01:58:55.527Z,4.22
2017-12-16T01:58:56.128Z,4.15
2017-12-16T01:58:56.727Z,4.28
2017-12-16T01:58:57.330Z,4.19
2017-12-16T01:59:51.807Z,4.16
2017-12-16T01:59:52.404Z,4.25
2017-12-16T01:59:53.003Z,4.19
2017-12-16T01:59:53.603Z,4.26
2017-12-16T01:59:54.233Z,4.26
2017-12-16T01:59:54.802Z,4.25
2017-12-16T01:59:55.403Z,4.25
2017-12-16T01:59:56.002Z,4.21
2017-12-16T02:00:49.486Z,4.19
2017-12-16T02:00:50.059Z,4.22
2017-12-16T02:00:50.655Z,4.16
2017-12-16T02:00:51.255Z,4.22
2017-12-16T02:00:51.855Z,4.24
2017-12-16T02:00:52.458Z,4.22
2017-12-16T02:00:53.059Z,4.16
2017-12-16T02:00:53.656Z,4.24
2017-12-16T02:01:48.136Z,4.19
2017-12-16T02:01:48.733Z,4.22
2017-12-16T02:01:49.333Z,4.21
2017-12-16T02:01:49.932Z,4.24
2017-12-16T02:01:50.528Z,4.22
2017-12-16T02:01:51.129Z,4.29
2017-12-16T02:01:51.728Z,4.29
2017-12-16T02:01:52.328Z,4.19
2017-12-16T02:02:45.788Z,4.22
2017-12-16T02:02:46.386Z,4.25
2017-12-16T02:02:46.987Z,4.26
2017-12-16T02:02:47.586Z,4.22
2017-12-16T02:02:48.211Z,4.24
2017-12-16T02:02:48.819Z,4.25
2017-12-16T02:02:49.382Z,4.26
2017-12-16T02:02:49.986Z,4.24
2017-12-16T02:03:43.440Z,4.21
2017-12-16T02:03:44.035Z,4.32
2017-12-16T02:03:44.633Z,4.28
2017-12-16T02:03:45.235Z,4.26
2017-12-16T02:03:45.834Z,4.19
2017-12-16T02:03:46.434Z,4.33
2017-12-16T02:03:47.033Z,4.22
2017-12-16T02:03:47.633Z,4.32
2017-12-16T02:04:41.089Z,4.19
2017-12-16T02:04:41.702Z,4.28
2017-12-16T02:04:42.287Z,4.24
2017-12-16T02:04:42.886Z,4.28
2017-12-16T02:04:43.487Z,4.19
2017-12-16T02:04:44.085Z,4.28
2017-12-16T02:04:44.686Z,4.33
2017-12-16T02:04:45.289Z,4.22
2017-12-16T02:05:39.799Z,4.28
2017-12-16T02:05:40.361Z,4.22
2017-12-16T02:05:40.961Z,4.24
2017-12-16T02:05:41.562Z,4.22
2017-12-16T02:05:42.162Z,4.22
2017-12-16T02:05:42.760Z,4.26
2017-12-16T02:05:43.359Z,4.32
2017-12-16T02:05:43.959Z,4.29
2017-12-16T02:06:38.440Z,4.25
2017-12-16T02:06:39.036Z,4.24
2017-12-16T02:06:39.636Z,4.25
2017-12-16T02:06:40.236Z,4.24
2017-12-16T02:06:40.836Z,4.28
2017-12-16T02:06:41.435Z,4.22
2017-12-16T02:06:42.035Z,4.28
2017-12-16T02:06:42.636Z,4.26
2017-12-16T02:07:37.114Z,4.22
2017-12-16T02:07:37.713Z,4.34
2017-12-16T02:07:38.316Z,4.29
2017-12-16T02:07:38.912Z,4.24
2017-12-16T02:07:39.513Z,4.22
2017-12-16T02:07:40.112Z,4.26
2017-12-16T02:07:40.711Z,4.22
2017-12-16T02:07:41.311Z,4.32
2017-12-16T02:08:34.771Z,4.24
2017-12-16T02:08:35.367Z,4.26
2017-12-16T02:08:35.965Z,4.29
2017-12-16T02:08:36.566Z,4.36
2017-12-16T02:08:37.164Z,4.28
2017-12-16T02:08:37.764Z,4.32
2017-12-16T02:08:38.364Z,4.26
2017-12-16T02:08:38.965Z,4.26
2017-12-16T02:09:32.420Z,4.28
2017-12-16T02:09:33.015Z,4.34
2017-12-16T02:09:33.627Z,4.33
2017-12-16T02:09:34.228Z,4.29
2017-12-16T02:09:34.814Z,4.32
2017-12-16T02:09:35.413Z,4.32
2017-12-16T02:09:36.014Z,4.29
2017-12-16T02:09:36.614Z,4.28
2017-12-16T02:10:30.071Z,4.33
2017-12-16T02:10:30.668Z,4.34
2017-12-16T02:10:31.274Z,4.37
2017-12-16T02:10:31.868Z,4.25
2017-12-16T02:10:32.469Z,4.33
2017-12-16T02:10:33.071Z,4.33
2017-12-16T02:10:33.667Z,4.36
2017-12-16T02:10:34.269Z,4.34
2017-12-16T02:11:27.749Z,4.34
2017-12-16T02:11:28.320Z,4.39
2017-12-16T02:11:28.920Z,4.33
2017-12-16T02:11:29.519Z,4.37
2017-12-16T02:11:30.120Z,4.32
2017-12-16T02:11:30.720Z,4.39
2017-12-16T02:11:31.319Z,4.37
2017-12-16T02:11:31.921Z,4.33
2017-12-16T02:12:26.398Z,4.29
2017-12-16T02:12:26.994Z,4.32
2017-12-16T02:12:27.595Z,4.40
2017-12-16T02:12:28.195Z,4.26
2017-12-16T02:12:28.794Z,4.36
2017-12-16T02:12:29.394Z,4.34
2017-12-16T02:12:29.994Z,4.32
2017-12-16T02:12:30.596Z,4.32
2017-12-16T02:13:25.075Z,4.29
2017-12-16T02:13:25.679Z,4.28
2017-12-16T02:13:26.272Z,4.32
2017-12-16T02:13:26.870Z,4.26
2017-12-16T02:13:27.471Z,4.24
2017-12-16T02:13:28.070Z,4.26
2017-12-16T02:13:28.668Z,4.33
2017-12-16T02:13:29.268Z,4.29
2017-12-16T02:14:22.726Z,4.28
2017-12-16T02:14:23.322Z,4.26
2017-12-16T02:14:23.924Z,4.22
2017-12-16T02:14:24.523Z,4.32
2017-12-16T02:14:25.125Z,4.29
2017-12-16T02:14:25.727Z,4.29
2017-12-16T02:14:26.322Z,4.26
2017-12-16T02:14:26.925Z,4.28
2017-12-16T02:15:20.380Z,4.29
2017-12-16T02:15:20.976Z,4.28
2017-12-16T02:15:21.575Z,4.29
2017-12-16T02:15:22.173Z,4.26
2017-12-16T02:15:22.775Z,4.29
2017-12-16T02:15:23.374Z,4.28
2017-12-16T02:15:23.974Z,4.22
2017-12-16T02:15:24.581Z,4.26
2017-12-16T02:16:18.031Z,4.26
2017-12-16T02:16:18.626Z,4.34
2017-12-16T02:16:19.228Z,4.25
2017-12-16T02:16:19.828Z,4.33
2017-12-16T02:16:20.426Z,4.26
2017-12-16T02:16:21.025Z,4.28
2017-12-16T02:16:21.651Z,4.25
2017-12-16T02:16:22.227Z,4.25
2017-12-16T02:17:16.737Z,4.25
2017-12-16T02:17:17.301Z,4.32
2017-12-16T02:17:17.902Z,4.25
2017-12-16T02:17:18.500Z,4.29
2017-12-16T02:17:19.101Z,4.28
2017-12-16T02:17:19.701Z,4.28
2017-12-16T02:17:20.301Z,4.29
2017-12-16T02:17:20.903Z,4.29
2017-12-16T02:18:14.358Z,4.24
2017-12-16T02:18:14.956Z,4.26
2017-12-16T02:18:15.553Z,4.25
2017-12-16T02:18:16.153Z,4.29
2017-12-16T02:18:16.752Z,4.26
2017-12-16T02:18:17.352Z,4.34
2017-12-16T02:18:17.953Z,4.25
2017-12-16T02:18:18.557Z,4.32
2017-12-16T02:19:13.033Z,4.26
2017-12-16T02:19:13.652Z,4.29
2017-12-16T02:19:14.243Z,4.29
2017-12-16T02:19:14.832Z,4.28
2017-12-16T02:19:15.452Z,4.25
2017-12-16T02:19:16.028Z,4.32
2017-12-16T02:19:16.625Z,4.32
2017-12-16T02:19:17.225Z,4.26
2017-12-16T02:20:10.688Z,4.19
2017-12-16T02:20:11.281Z,4.28
2017-12-16T02:20:11.881Z,4.32
2017-12-16T02:20:12.481Z,4.28
2017-12-16T02:20:13.081Z,4.26
2017-12-16T02:20:13.680Z,4.29
2017-12-16T02:20:14.280Z,4.28
2017-12-16T02:20:14.941Z,4.25
2017-12-16T02:21:08.342Z,4.29
2017-12-16T02:21:08.932Z,4.34
2017-12-16T02:21:09.531Z,4.33
2017-12-16T02:21:10.132Z,4.25
2017-12-16T02:21:10.732Z,4.34
2017-12-16T02:21:11.332Z,4.32
2017-12-16T02:21:11.932Z,4.32
2017-12-16T02:21:12.539Z,4.32
2017-12-16T02:22:05.990Z,4.36
2017-12-16T02:22:06.585Z,4.32
2017-12-16T02:22:07.186Z,4.29
2017-12-16T02:22:07.783Z,4.28
2017-12-16T02:22:08.383Z,4.32
2017-12-16T02:22:08.983Z,4.32
2017-12-16T02:22:09.582Z,4.32
2017-12-16T02:22:10.190Z,4.34
2017-12-16T02:23:03.665Z,4.33
2017-12-16T02:23:04.237Z,4.32
2017-12-16T02:23:04.835Z,4.32
2017-12-16T02:23:05.435Z,4.36
2017-12-16T02:23:06.040Z,4.33
2017-12-16T02:23:06.637Z,4.29
2017-12-16T02:23:07.233Z,4.40
2017-12-16T02:23:07.836Z,4.32
2017-12-16T02:24:02.316Z,4.39
2017-12-16T02:24:02.910Z,4.29
2017-12-16T02:24:03.513Z,4.34
2017-12-16T02:24:04.111Z,4.39
2017-12-16T02:24:04.709Z,4.39
2017-12-16T02:24:05.310Z,4.33
2017-12-16T02:24:05.911Z,4.33
2017-12-16T02:24:06.514Z,4.33
2017-12-16T02:25:00.998Z,4.33
2017-12-16T02:25:01.589Z,4.42
2017-12-16T02:25:02.188Z,4.42
2017-12-16T02:25:02.785Z,4.40
2017-12-16T02:25:03.385Z,4.36
2017-12-16T02:25:03.991Z,4.42
2017-12-16T02:25:04.583Z,4.42
2017-12-16T02:25:05.185Z,4.43
2017-12-16T02:25:58.745Z,4.39
2017-12-16T02:25:59.340Z,4.44
2017-12-16T02:25:59.940Z,4.40
2017-12-16T02:26:00.542Z,4.39
2017-12-16T02:26:01.141Z,4.44
2017-12-16T02:26:01.740Z,4.40
2017-12-16T02:26:02.339Z,4.39
2017-12-16T02:26:02.943Z,4.46
2017-12-16T02:26:57.418Z,4.40
2017-12-16T02:26:58.016Z,4.40
2017-12-16T02:26:58.617Z,4.44
2017-12-16T02:26:59.216Z,4.42
2017-12-16T02:26:59.815Z,4.46
2017-12-16T02:27:00.419Z,4.44
2017-12-16T02:27:01.018Z,4.39
2017-12-16T02:27:01.615Z,4.47
2017-12-16T02:27:55.106Z,4.51
2017-12-16T02:27:55.669Z,4.51
2017-12-16T02:27:56.269Z,4.40
2017-12-16T02:27:56.867Z,4.46
2017-12-16T02:27:57.482Z,4.39
2017-12-16T02:27:58.069Z,4.44
2017-12-16T02:27:58.666Z,4.46
2017-12-16T02:27:59.265Z,4.50
2017-12-16T02:28:53.747Z,4.52
2017-12-16T02:28:54.342Z,4.52
2017-12-16T02:28:54.942Z,4.39
2017-12-16T02:28:55.543Z,4.44
2017-12-16T02:28:56.144Z,4.42
2017-12-16T02:28:56.742Z,4.54
2017-12-16T02:28:57.343Z,4.42
2017-12-16T02:28:57.945Z,4.43
2017-12-16T02:29:52.423Z,4.46
2017-12-16T02:29:53.020Z,4.57
2017-12-16T02:29:53.619Z,4.47
2017-12-16T02:29:54.218Z,4.54
2017-12-16T02:29:54.818Z,4.51
2017-12-16T02:29:55.421Z,4.57
2017-12-16T02:29:56.018Z,4.47
2017-12-16T02:29:56.620Z,4.51
2017-12-16T02:30:51.097Z,4.51
2017-12-16T02:30:51.694Z,4.57
2017-12-16T02:30:52.294Z,4.55
2017-12-16T02:30:52.894Z,4.52
2017-12-16T02:30:53.505Z,4.57
2017-12-16T02:30:54.102Z,4.51
2017-12-16T02:30:54.693Z,4.55
2017-12-16T02:30:55.296Z,4.55
2017-12-16T02:31:48.751Z,4.54
2017-12-16T02:31:49.347Z,4.57
2017-12-16T02:31:49.947Z,4.55
2017-12-16T02:31:50.546Z,4.58
2017-12-16T02:31:51.146Z,4.58
2017-12-16T02:31:51.764Z,4.57
2017-12-16T02:31:52.357Z,4.57
2017-12-16T02:31:52.945Z,4.57
2017-12-16T02:32:47.426Z,4.59
2017-12-16T02:32:48.023Z,4.64
2017-12-16T02:32:48.623Z,4.67
2017-12-16T02:32:49.221Z,4.58
2017-12-16T02:32:49.821Z,4.58
2017-12-16T02:32:50.423Z,4.59
2017-12-16T02:32:51.021Z,4.58
2017-12-16T02:32:51.627Z,4.58
2017-12-16T02:33:45.105Z,4.58
2017-12-16T02:33:45.676Z,4.58
2017-12-16T02:33:46.274Z,4.62
2017-12-16T02:33:46.875Z,4.52
2017-12-16T02:33:47.475Z,4.55
2017-12-16T02:33:48.074Z,4.59
2017-12-16T02:33:48.675Z,4.69
2017-12-16T02:33:49.275Z,4.52
2017-12-16T02:52:32.532Z,4.43
2017-12-16T02:52:33.116Z,4.47
2017-12-16T02:52:33.703Z,4.44
2017-12-16T02:52:34.303Z,4.39
2017-12-16T02:52:34.903Z,4.47
2017-12-16T02:52:35.500Z,4.50
2017-12-16T02:52:36.101Z,4.43
2017-12-16T02:52:36.702Z,4.40
2017-12-16T02:53:30.159Z,4.46
2017-12-16T02:53:30.755Z,4.43
2017-12-16T02:53:31.367Z,4.44
2017-12-16T02:53:31.958Z,4.46
2017-12-16T02:53:32.552Z,4.43
2017-12-16T02:53:33.151Z,4.46
2017-12-16T02:53:33.752Z,4.39
2017-12-16T02:53:34.352Z,4.44
2017-12-16T02:54:27.814Z,4.34
2017-12-16T02:54:28.405Z,4.46
2017-12-16T02:54:29.007Z,4.39
2017-12-16T02:54:29.609Z,4.33
2017-12-16T02:54:30.205Z,4.36
2017-12-16T02:54:30.829Z,4.40
2017-12-16T02:54:31.407Z,4.39
2017-12-16T02:54:32.004Z,4.36
2017-12-16T02:55:25.464Z,4.33
2017-12-16T02:55:26.059Z,4.32
2017-12-16T02:55:26.657Z,4.34
2017-12-16T02:55:27.259Z,4.39
2017-12-16T02:55:27.866Z,4.36
2017-12-16T02:55:28.463Z,4.37
2017-12-16T02:55:29.060Z,4.39
2017-12-16T02:55:29.668Z,4.36
2017-12-16T02:56:24.136Z,4.33
2017-12-16T02:56:24.734Z,4.36
2017-12-16T02:56:25.335Z,4.36
2017-12-16T02:56:25.934Z,4.39
2017-12-16T02:56:26.536Z,4.29
2017-12-16T02:56:27.133Z,4.33
2017-12-16T02:56:27.733Z,4.33
2017-12-16T02:56:28.332Z,4.32
2017-12-16T02:57:22.854Z,4.26
2017-12-16T02:57:23.410Z,4.28
2017-12-16T02:57:24.009Z,4.37
2017-12-16T02:57:24.614Z,4.29
2017-12-16T02:57:25.209Z,4.28
2017-12-16T02:57:25.811Z,4.29
2017-12-16T02:57:26.410Z,4.33
2017-12-16T02:57:27.022Z,4.39
2017-12-16T02:58:21.492Z,4.22
2017-12-16T02:58:22.090Z,4.28
2017-12-16T02:58:22.688Z,4.32
2017-12-16T02:58:23.286Z,4.26
2017-12-16T02:58:23.889Z,4.28
2017-12-16T02:58:24.484Z,4.22
2017-12-16T02:58:25.084Z,4.32
2017-12-16T02:58:25.685Z,4.26
2017-12-16T02:59:20.165Z,4.21
2017-12-16T02:59:20.763Z,4.26
2017-12-16T02:59:21.361Z,4.16
2017-12-16T02:59:21.961Z,4.25
2017-12-16T02:59:22.562Z,4.24
2017-12-16T02:59:23.173Z,4.21
2017-12-16T02:59:23.765Z,4.22
2017-12-16T02:59:24.364Z,4.25
2017-12-16T03:00:18.842Z,4.25
2017-12-16T03:00:19.437Z,4.19
2017-12-16T03:00:20.038Z,4.16
2017-12-16T03:00:20.637Z,4.19
2017-12-16T03:00:21.237Z,4.19
2017-12-16T03:00:21.836Z,4.24
2017-12-16T03:00:22.437Z,4.21
2017-12-16T03:00:23.056Z,4.21
2017-12-16T03:01:16.493Z,4.16
2017-12-16T03:01:17.090Z,4.21
2017-12-16T03:01:17.690Z,4.26
2017-12-16T03:01:18.297Z,4.08
2017-12-16T03:01:18.889Z,4.18
2017-12-16T03:01:19.491Z,4.10
2017-12-16T03:01:20.090Z,4.18
2017-12-16T03:01:20.690Z,4.10
2017-12-16T03:02:15.169Z,4.12
2017-12-16T03:02:15.765Z,4.12
2017-12-16T03:02:16.363Z,4.10
2017-12-16T03:02:16.964Z,4.08
2017-12-16T03:02:17.563Z,4.06
2017-12-16T03:02:18.175Z,4.07
2017-12-16T03:02:18.763Z,4.08
2017-12-16T03:02:19.366Z,4.10
2017-12-16T03:03:13.895Z,4.10
2017-12-16T03:03:15.418Z,4.10
2017-12-16T03:03:15.923Z,4.08
2017-12-16T03:03:16.523Z,4.03
2017-12-16T03:03:17.122Z,4.10
2017-12-16T03:03:17.722Z,4.06
2017-12-16T03:03:18.321Z,4.08
2017-12-16T03:04:12.316Z,3.98
2017-12-16T03:04:12.913Z,4.06
2017-12-16T03:04:13.512Z,4.14
2017-12-16T03:04:14.114Z,4.07
2017-12-16T03:04:14.720Z,4.14
2017-12-16T03:04:15.326Z,4.10
2017-12-16T03:04:15.912Z,4.04
2017-12-16T03:04:16.513Z,4.06
2017-12-16T03:05:10.990Z,4.04
2017-12-16T03:05:11.587Z,4.04
2017-12-16T03:05:12.188Z,4.07
2017-12-16T03:05:12.786Z,4.08
2017-12-16T03:05:13.386Z,4.07
2017-12-16T03:05:13.991Z,4.07
2017-12-16T03:05:14.587Z,4.10
2017-12-16T03:05:15.188Z,4.06
2017-12-16T03:06:08.645Z,4.12
2017-12-16T03:06:09.241Z,4.10
2017-12-16T03:06:09.840Z,4.08
2017-12-16T03:06:10.440Z,4.08
2017-12-16T03:06:11.040Z,4.08
2017-12-16T03:06:11.640Z,4.12
2017-12-16T03:06:12.241Z,4.12
2017-12-16T03:06:12.851Z,4.10
2017-12-16T03:07:21.450Z,4.07
2017-12-16T03:07:22.052Z,4.10
2017-12-16T03:07:22.648Z,4.07
2017-12-16T03:07:23.247Z,4.07
2017-12-16T03:07:23.847Z,4.12
2017-12-16T03:07:24.447Z,4.08
2017-12-16T03:07:25.045Z,4.08
2017-12-16T03:07:25.647Z,4.10
2017-12-16T03:07:26.245Z,4.10
2017-12-16T03:07:26.845Z,4.08
2017-12-16T03:07:27.445Z,4.14
2017-12-16T03:07:28.045Z,4.10
2017-12-16T03:07:28.645Z,4.14
2017-12-16T03:07:29.245Z,4.14
2017-12-16T03:07:29.844Z,4.14
2017-12-16T03:07:30.445Z,4.10
2017-12-16T03:08:28.972Z,4.16
2017-12-16T03:08:29.542Z,4.19
2017-12-16T03:08:30.155Z,4.08
2017-12-16T03:08:30.727Z,4.18
2017-12-16T03:08:31.327Z,4.12
2017-12-16T03:08:31.926Z,4.12
2017-12-16T03:08:32.526Z,4.15
2017-12-16T03:08:33.128Z,4.18
2017-12-16T03:09:26.690Z,4.21
2017-12-16T03:09:27.292Z,4.21
2017-12-16T03:09:27.883Z,4.24
2017-12-16T03:09:28.488Z,4.22
2017-12-16T03:09:29.083Z,4.10
2017-12-16T03:09:29.683Z,4.19
2017-12-16T03:09:30.282Z,4.19
2017-12-16T03:09:30.883Z,4.15
2017-12-16T03:10:24.340Z,4.16
2017-12-16T03:10:24.935Z,4.21
2017-12-16T03:10:25.535Z,4.18
2017-12-16T03:10:26.134Z,4.24
2017-12-16T03:10:26.745Z,4.21
2017-12-16T03:10:27.335Z,4.19
2017-12-16T03:10:27.936Z,4.18
2017-12-16T03:10:28.562Z,4.24
2017-12-16T03:11:21.992Z,4.18
2017-12-16T03:11:22.587Z,4.33
2017-12-16T03:11:23.187Z,4.25
2017-12-16T03:11:23.786Z,4.34
2017-12-16T03:11:24.391Z,4.24
2017-12-16T03:11:24.986Z,4.26
2017-12-16T03:11:25.585Z,4.37
2017-12-16T03:11:26.186Z,4.25
2017-12-16T03:12:19.642Z,4.25
2017-12-16T03:12:20.238Z,4.34
2017-12-16T03:12:20.839Z,4.29
2017-12-16T03:12:21.439Z,4.36
2017-12-16T03:12:22.037Z,4.32
2017-12-16T03:12:22.641Z,4.33
2017-12-16T03:12:23.236Z,4.37
2017-12-16T03:12:23.839Z,4.32
2017-12-16T03:13:17.293Z,4.36
2017-12-16T03:13:17.890Z,4.40
2017-12-16T03:13:18.491Z,4.34
2017-12-16T03:13:19.093Z,4.37
2017-12-16T03:13:19.699Z,4.39
2017-12-16T03:13:20.288Z,4.34
2017-12-16T03:13:20.905Z,4.32
2017-12-16T03:13:21.489Z,4.32
2017-12-16T03:14:14.971Z,4.40
2017-12-16T03:14:15.543Z,4.39
2017-12-16T03:14:16.143Z,4.43
2017-12-16T03:14:16.744Z,4.42
2017-12-16T03:14:17.347Z,4.42
2017-12-16T03:14:17.941Z,4.37
2017-12-16T03:14:18.540Z,4.39
2017-12-16T03:14:19.172Z,4.46
2017-12-16T03:15:12.598Z,4.40
2017-12-16T03:15:13.193Z,4.47
2017-12-16T03:15:13.793Z,4.42
2017-12-16T03:15:14.394Z,4.46
2017-12-16T03:15:15.001Z,4.46
2017-12-16T03:15:15.592Z,4.50
2017-12-16T03:15:16.192Z,4.40
2017-12-16T03:15:16.794Z,4.43
2017-12-16T03:16:10.248Z,4.43
2017-12-16T03:16:10.846Z,4.40
2017-12-16T03:16:11.445Z,4.43
2017-12-16T03:16:12.046Z,4.43
2017-12-16T03:16:12.644Z,4.43
2017-12-16T03:16:13.245Z,4.39
2017-12-16T03:16:13.845Z,4.42
2017-12-16T03:16:14.449Z,4.42
2017-12-16T03:17:08.922Z,4.54
2017-12-16T03:17:09.520Z,4.51
2017-12-16T03:17:10.120Z,4.58
2017-12-16T03:17:10.718Z,4.55
2017-12-16T03:17:11.319Z,4.51
2017-12-16T03:17:11.921Z,4.51
2017-12-16T03:17:12.519Z,4.58
2017-12-16T03:17:13.121Z,4.52
2017-12-16T03:18:07.599Z,4.54
2017-12-16T03:18:08.197Z,4.51
2017-12-16T03:18:08.796Z,4.55
2017-12-16T03:18:09.395Z,4.55
2017-12-16T03:18:09.995Z,4.58
2017-12-16T03:18:10.595Z,4.52
2017-12-16T03:18:11.194Z,4.47
2017-12-16T03:18:11.801Z,4.51
2017-12-16T03:19:05.261Z,4.43
2017-12-16T03:19:05.869Z,4.51
2017-12-16T03:19:06.532Z,4.51
2017-12-16T03:19:07.047Z,4.51
2017-12-16T03:19:07.646Z,4.51
2017-12-16T03:19:08.257Z,4.51
2017-12-16T03:19:08.846Z,4.55
2017-12-16T03:19:09.447Z,4.52
2017-12-16T03:20:02.930Z,4.55
2017-12-16T03:20:03.502Z,4.51
2017-12-16T03:20:04.100Z,4.47
2017-12-16T03:20:04.700Z,4.51
2017-12-16T03:20:05.300Z,4.52
2017-12-16T03:20:05.900Z,4.57
2017-12-16T03:20:06.525Z,4.52
2017-12-16T03:20:07.099Z,4.51
2017-12-16T03:21:00.555Z,4.55
2017-12-16T03:21:01.153Z,4.52
2017-12-16T03:21:01.752Z,4.55
2017-12-16T03:21:02.351Z,4.50
2017-12-16T03:21:02.951Z,4.54
2017-12-16T03:21:03.557Z,4.58
2017-12-16T03:21:04.150Z,4.58
2017-12-16T03:21:04.752Z,4.55
2017-12-16T03:21:58.317Z,4.51
2017-12-16T03:21:58.904Z,4.55
2017-12-16T03:21:59.504Z,4.55
2017-12-16T03:22:00.104Z,4.59
2017-12-16T03:22:00.706Z,4.52
2017-12-16T03:22:01.305Z,4.57
2017-12-16T03:22:01.904Z,4.58
2017-12-16T03:22:02.505Z,4.50
2017-12-16T03:22:55.960Z,4.54
2017-12-16T03:22:56.557Z,4.55
2017-12-16T03:22:57.158Z,4.51
2017-12-16T03:22:57.758Z,4.55
2017-12-16T03:22:58.362Z,4.55
2017-12-16T03:22:58.958Z,4.54
2017-12-16T03:22:59.565Z,4.51
2017-12-16T03:23:00.170Z,4.57
2017-12-16T03:23:54.635Z,4.51
2017-12-16T03:23:55.236Z,4.55
2017-12-16T03:23:55.831Z,4.57
2017-12-16T03:23:56.431Z,4.55
2017-12-16T03:23:57.031Z,4.55
2017-12-16T03:23:57.633Z,4.54
2017-12-16T03:23:58.231Z,4.54
2017-12-16T03:23:58.833Z,4.52
2017-12-16T03:24:52.322Z,4.52
2017-12-16T03:24:52.885Z,4.55
2017-12-16T03:24:53.486Z,4.54
2017-12-16T03:24:54.085Z,4.54
2017-12-16T03:24:54.692Z,4.54
2017-12-16T03:24:55.295Z,4.51
2017-12-16T03:24:55.891Z,4.57
2017-12-16T03:24:56.485Z,4.55
2017-12-16T03:25:49.938Z,4.54
2017-12-16T03:25:50.536Z,4.54
2017-12-16T03:25:51.197Z,4.50
2017-12-16T03:25:51.735Z,4.52
2017-12-16T03:25:52.335Z,4.54
2017-12-16T03:25:52.935Z,4.58
2017-12-16T03:25:53.536Z,4.55
2017-12-16T03:25:54.134Z,4.57
2017-12-16T03:26:49.332Z,4.58
2017-12-16T03:26:49.928Z,4.69
2017-12-16T03:26:50.528Z,4.58
2017-12-16T03:26:51.129Z,4.58
2017-12-16T03:26:51.730Z,4.57
2017-12-16T03:26:52.327Z,4.59
2017-12-16T03:27:47.290Z,4.54
2017-12-16T03:27:47.894Z,4.50
2017-12-16T03:27:48.518Z,4.59
2017-12-16T03:27:49.093Z,4.65
2017-12-16T03:27:49.684Z,4.54
2017-12-16T03:27:50.286Z,4.62
2017-12-16T03:27:50.886Z,4.58
2017-12-16T03:27:51.485Z,4.62
2017-12-16T03:28:45.971Z,4.57
2017-12-16T03:28:46.564Z,4.61
2017-12-16T03:28:47.162Z,4.58
2017-12-16T03:28:47.762Z,4.59
2017-12-16T03:28:48.363Z,4.64
2017-12-16T03:28:48.998Z,4.69
2017-12-16T03:28:49.566Z,4.64
2017-12-16T03:28:50.161Z,4.61
2017-12-16T03:29:43.620Z,4.59
2017-12-16T03:29:44.214Z,4.59
2017-12-16T03:29:44.814Z,4.61
2017-12-16T03:29:45.417Z,4.46
2017-12-16T03:29:46.015Z,4.62
2017-12-16T03:29:46.613Z,4.54
2017-12-16T03:29:47.221Z,4.57
2017-12-16T03:29:47.827Z,4.64
2017-12-16T03:30:41.375Z,4.55
2017-12-16T03:30:41.878Z,4.58
2017-12-16T03:30:42.473Z,4.55
2017-12-16T03:30:43.073Z,4.57
2017-12-16T03:30:43.672Z,4.54
2017-12-16T03:30:44.273Z,4.55
2017-12-16T03:30:44.872Z,4.64
2017-12-16T03:30:45.489Z,4.59
2017-12-16T03:31:38.939Z,4.52
2017-12-16T03:31:39.517Z,4.54
2017-12-16T03:31:40.117Z,4.57
2017-12-16T03:31:40.718Z,4.54
2017-12-16T03:31:41.316Z,4.47
2017-12-16T03:31:41.917Z,4.55
2017-12-16T03:31:42.516Z,4.54
2017-12-16T03:31:43.116Z,4.51
2017-12-16T03:32:36.573Z,4.51
2017-12-16T03:32:37.172Z,4.51